createdAt,value
2022-11-10T00:04:45.663Z,2
2022-11-10T00:10:08.639Z,1.9
2022-11-10T00:15:30.432Z,1.9
2022-11-10T00:20:36.878Z,1.9
2022-11-10T00:25:59.246Z,1.9
2022-11-10T00:31:20.879Z,1.9
2022-11-10T00:36:43.085Z,1.9
2022-11-10T00:41:49.567Z,1.9
2022-11-10T00:47:11.862Z,1.9
2022-11-10T00:52:32.686Z,1.9
2022-11-10T00:57:38.768Z,1.9
2022-11-10T01:02:45.101Z,1.8
2022-11-10T01:08:07.799Z,1.8
2022-11-10T01:13:29.453Z,1.7
2022-11-10T01:18:53.477Z,1.6
2022-11-10T01:24:16.410Z,1.5
2022-11-10T01:29:38.399Z,1.4
2022-11-10T01:34:29.480Z,1.3
2022-11-10T01:39:35.650Z,1.3
2022-11-10T01:44:57.928Z,1.2
2022-11-10T01:50:19.983Z,1.1
2022-11-10T01:55:41.921Z,1.1
2022-11-10T02:01:19.185Z,1.1
2022-11-10T02:06:24.681Z,1.1
2022-11-10T02:12:02.325Z,1
2022-11-10T02:17:09.033Z,1
2022-11-10T02:22:45.568Z,1
2022-11-10T02:28:22.866Z,1
2022-11-10T02:34:00.775Z,1
2022-11-10T02:39:05.722Z,1
2022-11-10T02:44:42.293Z,0.9
2022-11-10T02:50:04.710Z,0.9
2022-11-10T02:55:41.707Z,0.9
2022-11-10T03:01:03.054Z,0.9
2022-11-10T03:06:30.963Z,0.8
2022-11-10T03:12:08.806Z,0.8
2022-11-10T03:18:07.313Z,0.8
2022-11-10T03:23:45.004Z,0.9
2022-11-10T03:29:21.531Z,0.9
2022-11-10T03:35:03.388Z,1.1
2022-11-10T03:40:25.044Z,1.2
2022-11-10T03:46:01.421Z,1.3
2022-11-10T03:51:44.825Z,1.4
2022-11-10T03:57:06.519Z,1.4
2022-11-10T04:02:12.732Z,1.4
2022-11-10T04:07:04.551Z,1.3
2022-11-10T04:12:26.687Z,1.3
2022-11-10T04:17:48.176Z,1.3
2022-11-10T04:23:09.757Z,1.1
2022-11-10T04:28:16.479Z,1
2022-11-10T04:33:23.264Z,0.9
2022-11-10T04:38:45.521Z,0.8
2022-11-10T04:44:06.980Z,0.7
2022-11-10T04:49:29.725Z,0.6
2022-11-10T04:54:52.542Z,0.6
2022-11-10T04:59:59.232Z,0.5
2022-11-10T05:05:22.074Z,0.4
2022-11-10T05:10:44.081Z,0.4
2022-11-10T05:15:35.282Z,0.4
2022-11-10T05:20:57.414Z,0.4
2022-11-10T05:26:03.793Z,0.4
2022-11-10T05:31:25.790Z,0.4
2022-11-10T05:37:03.347Z,0.6
2022-11-10T05:42:42.583Z,0.6
2022-11-10T05:48:04.259Z,0.8
2022-11-10T05:53:42.682Z,1.1
2022-11-10T05:59:20.073Z,1.3
2022-11-10T06:04:58.405Z,1.6
2022-11-10T06:10:36.543Z,1.9
2022-11-10T06:16:13.804Z,2.3
2022-11-10T06:21:55.458Z,2.7
2022-11-10T06:27:37.206Z,3.1
2022-11-10T06:33:14.628Z,3.6
2022-11-10T06:38:59.137Z,4.4
2022-11-10T06:44:36.833Z,5.6
2022-11-10T06:50:14.767Z,6.7
2022-11-10T06:55:52.516Z,7.9
2022-11-10T07:01:34.159Z,9.1
2022-11-10T07:07:43.775Z,10.6
2022-11-10T07:13:21.898Z,11.9
2022-11-10T07:18:44.588Z,13
2022-11-10T07:24:28.690Z,14
2022-11-10T07:30:11.078Z,15.9
2022-11-10T07:35:54.099Z,18.3
2022-11-10T07:41:31.232Z,20.6
2022-11-10T07:47:13.669Z,23.4
2022-11-10T07:52:51.260Z,26.1
2022-11-10T07:58:28.984Z,28.1
2022-11-10T08:04:11.816Z,29.7
2022-11-10T08:09:50.195Z,32.1
2022-11-10T08:15:12.343Z,35.4
2022-11-10T08:20:53.893Z,37.8
2022-11-10T08:26:32.246Z,42.9
2022-11-10T08:32:17.256Z,49.8
2022-11-10T08:37:55.849Z,56.3
2022-11-10T08:43:54.112Z,57.2
2022-11-10T08:49:32.551Z,43.3
2022-11-10T08:55:11.131Z,50.4
2022-11-10T09:00:54.386Z,61.1
2022-11-10T09:06:33.174Z,54.6
2022-11-10T09:12:26.080Z,53.1
2022-11-10T09:17:49.491Z,55.1
2022-11-10T09:23:34.376Z,55.8
2022-11-10T09:29:03.444Z,57.1
2022-11-10T09:34:52.837Z,58.3
2022-11-10T09:40:34.965Z,59.2
2022-11-10T09:46:13.801Z,59.3
2022-11-10T09:52:23.133Z,59.5
2022-11-10T09:58:05.353Z,60.7
2022-11-10T10:03:43.237Z,61.7
2022-11-10T10:09:49.756Z,61.2
2022-11-10T10:15:28.156Z,55.1
2022-11-10T10:21:09.360Z,59.7
2022-11-10T10:27:28.897Z,61.9
2022-11-10T10:33:06.189Z,62.4
2022-11-10T10:38:49.670Z,63.6
2022-11-10T10:44:31.456Z,63.9
2022-11-10T10:50:42.578Z,64
2022-11-10T10:56:19.955Z,64
2022-11-10T11:01:41.918Z,64.4
2022-11-10T11:07:20.509Z,63.4
2022-11-10T11:12:59.414Z,63.6
2022-11-10T11:18:28.147Z,63.3
2022-11-10T11:24:07.686Z,63.6
2022-11-10T11:29:45.995Z,64.1
2022-11-10T11:35:25.592Z,64
2022-11-10T11:41:09.161Z,63.8
2022-11-10T11:46:49.684Z,63.6
2022-11-10T11:52:11.982Z,63.4
2022-11-10T11:57:18.746Z,63.3
2022-11-10T12:02:15.298Z,63.1
2022-11-10T12:07:42.757Z,62.8
2022-11-10T12:12:50.185Z,62.3
2022-11-10T12:18:13.128Z,65.1
2022-11-10T12:23:24.916Z,68
2022-11-10T12:28:47.287Z,65.9
2022-11-10T12:33:55.047Z,59.1
2022-11-10T12:39:17.162Z,61.3
2022-11-10T12:44:09.154Z,63.4
2022-11-10T12:49:32.126Z,65.1
2022-11-10T12:54:39.288Z,65.6
2022-11-10T12:59:45.587Z,65.6
2022-11-10T13:05:28.777Z,65.3
2022-11-10T13:10:56.712Z,64.6
2022-11-10T13:16:18.944Z,63.6
2022-11-10T13:21:43.291Z,62.1
2022-11-10T13:26:50.850Z,60.4
2022-11-10T13:32:13.413Z,59.1
2022-11-10T13:37:39.405Z,57.2
2022-11-10T13:43:03.835Z,55.8
2022-11-10T13:48:42.058Z,54.2
2022-11-10T13:54:20.282Z,52.4
2022-11-10T13:59:48.110Z,50.7
2022-11-10T14:05:26.312Z,48.8
2022-11-10T14:11:04.875Z,46.8
2022-11-10T14:16:27.354Z,44.8
2022-11-10T14:22:11.874Z,42.9
2022-11-10T14:27:53.820Z,40.7
2022-11-10T14:33:35.217Z,38.6
2022-11-10T14:39:14.536Z,36.6
2022-11-10T14:44:53.337Z,34.6
2022-11-10T14:50:31.608Z,32.7
2022-11-10T14:56:11.605Z,30.8
2022-11-10T15:01:51.119Z,28.9
2022-11-10T15:07:36.693Z,27
2022-11-10T15:13:16.360Z,25.1
2022-11-10T15:18:55.268Z,23.4
2022-11-10T15:24:32.753Z,21.8
2022-11-10T15:30:11.851Z,20.3
2022-11-10T15:35:54.863Z,18.9
2022-11-10T15:41:21.725Z,17.8
2022-11-10T15:46:52.409Z,16.8
2022-11-10T15:52:36.551Z,15.8
2022-11-10T15:58:14.486Z,15
2022-11-10T16:03:36.528Z,14.4
2022-11-10T16:09:00.329Z,13.8
2022-11-10T16:14:38.920Z,13.1
2022-11-10T16:20:02.063Z,12.6
2022-11-10T16:25:44.475Z,12.2
2022-11-10T16:30:36.847Z,11.8
2022-11-10T16:35:44.001Z,11.3
2022-11-10T16:41:23.421Z,10.9
2022-11-10T16:46:46.471Z,10.6
2022-11-10T16:52:09.025Z,10.3
2022-11-10T16:57:16.775Z,10
2022-11-10T17:02:30.156Z,9.7
2022-11-10T17:07:42.926Z,9.5
2022-11-10T17:13:20.086Z,9.2
2022-11-10T17:18:27.897Z,8.9
2022-11-10T17:23:36.699Z,8.7
2022-11-10T17:28:49.725Z,8.3
2022-11-10T17:34:17.298Z,8
2022-11-10T17:39:41.421Z,7.8
2022-11-10T17:44:49.322Z,7.6
2022-11-10T17:50:16.533Z,7.3
2022-11-10T17:55:26.452Z,7.1
2022-11-10T18:00:35.863Z,7
2022-11-10T18:05:31.786Z,6.8
2022-11-10T18:11:10.959Z,6.6
2022-11-10T18:16:49.801Z,6.4
2022-11-10T18:22:31.584Z,6.3
2022-11-10T18:27:55.083Z,6.1
2022-11-10T18:33:33.159Z,6
2022-11-10T18:38:55.773Z,5.9
2022-11-10T18:44:36.933Z,5.8
2022-11-10T18:50:21.241Z,5.7
2022-11-10T18:56:02.234Z,5.6
2022-11-10T19:01:44.740Z,5.6
2022-11-10T19:07:11.976Z,5.6
2022-11-10T19:12:50.441Z,5.6
2022-11-10T19:18:14.193Z,5.5
2022-11-10T19:23:56.414Z,5.4
2022-11-10T19:30:01.595Z,5.4
2022-11-10T19:35:24.729Z,5.3
2022-11-10T19:41:03.486Z,5.2
2022-11-10T19:46:41.211Z,5
2022-11-10T19:52:20.624Z,4.9
2022-11-10T19:58:01.073Z,4.9
2022-11-10T20:03:42.552Z,4.8
2022-11-10T20:09:22.230Z,4.7
2022-11-10T20:15:06.653Z,4.6
2022-11-10T20:20:50.095Z,4.6
2022-11-10T20:26:19.395Z,4.4
2022-11-10T20:31:57.830Z,4.3
2022-11-10T20:37:36.409Z,4.3
2022-11-10T20:43:35.231Z,4.1
2022-11-10T20:49:32.447Z,4
2022-11-10T20:54:58.188Z,3.9
2022-11-10T21:01:01.396Z,3.8
2022-11-10T21:06:28.760Z,3.8
2022-11-10T21:12:07.058Z,3.8
2022-11-10T21:17:44.605Z,3.7
2022-11-10T21:23:07.381Z,3.6
2022-11-10T21:28:30.198Z,3.6
2022-11-10T21:33:57.156Z,3.6
2022-11-10T21:39:37.451Z,3.6
2022-11-10T21:45:16.237Z,3.6
2022-11-10T21:50:38.647Z,3.4
2022-11-10T21:56:17.031Z,3.4
2022-11-10T22:01:55.775Z,3.4
2022-11-10T22:07:33.885Z,3.3
2022-11-10T22:13:11.329Z,3.3
2022-11-10T22:18:34.481Z,3.3
2022-11-10T22:24:02.268Z,3.2
2022-11-10T22:29:44.990Z,3.1
2022-11-10T22:35:07.906Z,3.1
2022-11-10T22:40:31.970Z,3.1
2022-11-10T22:45:24.520Z,3
2022-11-10T22:50:46.344Z,2.9
2022-11-10T22:55:53.133Z,2.9
2022-11-10T23:01:36.169Z,2.8
2022-11-10T23:06:46.982Z,2.8
2022-11-10T23:12:24.656Z,2.7
2022-11-10T23:18:06.590Z,2.6
2022-11-10T23:23:29.035Z,2.8
2022-11-10T23:29:12.887Z,2.8
2022-11-10T23:34:51.442Z,2.9
2022-11-10T23:40:28.948Z,2.9
2022-11-10T23:46:21.799Z,3.1
2022-11-10T23:51:35.264Z,3.1
2022-11-10T23:56:57.228Z,3.2
